Time;durP1;ratioP1;P1;durP2;ratioP2;P2;SDS_P1;SDS_P2;PMS_P1;PMS_P2;Temp;Humidity;BMP_temperature;BMP_pressure;BME280_temperature;BME280_humidity;BME280_pressure;Samples;Min_cycle;Max_cycle;Signal;HPM_P1;HPM_P2
2023/05/27 00:02:25;;;;;;;6.53;2.50;;;;;;;;;;5011765;28;20416;-64
2023/05/27 00:04:52;;;;;;;7.32;2.80;;;;;;;;;;5012225;28;20053;-65
2023/05/27 00:07:20;;;;;;;8.52;2.45;;;;;;;;;;5011941;28;20542;-64
2023/05/27 00:09:46;;;;;;;10.15;3.00;;;;;;;;;;5011692;28;20060;-64
2023/05/27 00:12:13;;;;;;;5.60;2.60;;;;;;;;;;5012218;28;20041;-65
2023/05/27 00:14:39;;;;;;;10.25;3.30;;;;;;;;;;5011693;28;20424;-65
2023/05/27 00:17:06;;;;;;;5.25;2.35;;;;;;;;;;5011780;28;20409;-65
2023/05/27 00:19:33;;;;;;;9.30;3.20;;;;;;;;;;5010260;28;20054;-65
2023/05/27 00:21:59;;;;;;;5.47;2.53;;;;;;;;;;5012298;28;20049;-65
2023/05/27 00:24:27;;;;;;;10.13;3.05;;;;;;;;;;5011494;28;20050;-65
2023/05/27 00:26:54;;;;;;;9.48;2.72;;;;;;;;;;5012180;28;20065;-65
2023/05/27 00:29:20;;;;;;;11.02;2.45;;;;;;;;;;5011312;28;20532;-65
2023/05/27 00:31:47;;;;;;;7.40;2.88;;;;;;;;;;5011007;28;20053;-65
2023/05/27 00:34:13;;;;;;;5.53;2.55;;;;;;;;;;5011197;28;20053;-65
2023/05/27 00:36:40;;;;;;;9.90;3.00;;;;;;;;;;5011600;28;20416;-65
2023/05/27 00:39:06;;;;;;;9.15;2.50;;;;;;;;;;5011234;28;20145;-65
2023/05/27 00:41:35;;;;;;;6.53;2.95;;;;;;;;;;5011168;28;20053;-65
2023/05/27 00:44:02;;;;;;;7.38;2.20;;;;;;;;;;5011458;28;20518;-65
2023/05/27 00:46:29;;;;;;;7.10;2.53;;;;;;;;;;5011278;28;20057;-65
2023/05/27 00:48:56;;;;;;;8.73;2.85;;;;;;;;;;5011756;28;20058;-65
2023/05/27 00:51:22;;;;;;;8.93;2.50;;;;;;;;;;5010686;28;20046;-65
2023/05/27 00:53:49;;;;;;;7.57;2.90;;;;;;;;;;5011487;28;20489;-65
2023/05/27 00:56:16;;;;;;;6.55;2.85;;;;;;;;;;5010719;28;20393;-66
2023/05/27 00:58:44;;;;;;;9.02;2.95;;;;;;;;;;5010978;28;20050;-66
2023/05/27 01:01:11;;;;;;;6.28;2.38;;;;;;;;;;5010545;28;20522;-66
2023/05/27 01:03:38;;;;;;;8.13;3.20;;;;;;;;;;5011257;28;20476;-65
2023/05/27 01:06:14;;;;;;;8.13;2.50;;;;;;;;;;5010642;28;20484;-66
2023/05/27 01:08:48;;;;;;;7.00;2.63;;;;;;;;;;5011049;28;20085;-65
2023/05/27 01:11:21;;;;;;;7.47;2.60;;;;;;;;;;5010147;28;20061;-65
2023/05/27 01:13:56;;;;;;;5.85;2.58;;;;;;;;;;5011275;28;20365;-66
2023/05/27 01:16:25;;;;;;;10.13;3.13;;;;;;;;;;5010664;28;20053;-66
2023/05/27 01:18:54;;;;;;;9.43;2.60;;;;;;;;;;5011041;28;20046;-65
2023/05/27 01:21:24;;;;;;;9.02;2.75;;;;;;;;;;5009986;28;20038;-65
2023/05/27 01:23:52;;;;;;;9.57;3.15;;;;;;;;;;5010680;28;20070;-65
2023/05/27 01:26:18;;;;;;;7.40;2.78;;;;;;;;;;5010856;28;20496;-66
2023/05/27 01:28:45;;;;;;;9.38;2.70;;;;;;;;;;5011114;28;20042;-66
2023/05/27 01:31:17;;;;;;;11.07;4.00;;;;;;;;;;5010131;28;20049;-66
2023/05/27 01:33:56;;;;;;;8.50;2.75;;;;;;;;;;5010451;28;20536;-66
2023/05/27 01:36:25;;;;;;;9.77;2.78;;;;;;;;;;5010853;28;20654;-66
2023/05/27 01:38:55;;;;;;;8.23;2.67;;;;;;;;;;5010385;28;20049;-66
2023/05/27 01:41:22;;;;;;;7.07;3.00;;;;;;;;;;5010340;28;20421;-66
2023/05/27 01:43:50;;;;;;;5.63;2.70;;;;;;;;;;5010374;28;20493;-65
2023/05/27 01:46:16;;;;;;;9.55;2.85;;;;;;;;;;5010908;28;20050;-65
2023/05/27 01:48:43;;;;;;;8.35;3.30;;;;;;;;;;5009979;28;20049;-66
2023/05/27 01:51:09;;;;;;;9.52;3.13;;;;;;;;;;5010048;28;20049;-66
2023/05/27 01:53:37;;;;;;;6.85;2.75;;;;;;;;;;5010155;28;20056;-66
2023/05/27 01:56:05;;;;;;;8.85;2.70;;;;;;;;;;5010440;28;20484;-65
2023/05/27 01:58:31;;;;;;;8.95;2.80;;;;;;;;;;5010052;28;20054;-66
2023/05/27 02:00:58;;;;;;;9.38;3.05;;;;;;;;;;5009696;28;20053;-66
2023/05/27 02:03:24;;;;;;;6.85;3.08;;;;;;;;;;5009564;28;20042;-65
2023/05/27 02:05:51;;;;;;;5.97;2.17;;;;;;;;;;5010119;28;20046;-66
2023/05/27 02:08:17;;;;;;;8.43;3.00;;;;;;;;;;5010164;28;20053;-65
2023/05/27 02:10:44;;;;;;;7.22;2.90;;;;;;;;;;5009343;28;20064;-66
2023/05/27 02:13:12;;;;;;;7.15;2.70;;;;;;;;;;5010199;28;20050;-65
2023/05/27 02:15:38;;;;;;;9.75;2.70;;;;;;;;;;5009851;28;20384;-65
2023/05/27 02:18:06;;;;;;;8.02;2.80;;;;;;;;;;5009840;28;20072;-65
2023/05/27 02:20:32;;;;;;;7.60;2.80;;;;;;;;;;5009268;28;20468;-66
2023/05/27 02:23:02;;;;;;;8.20;2.50;;;;;;;;;;5010105;28;20081;-66
2023/05/27 02:25:28;;;;;;;6.30;2.33;;;;;;;;;;5009458;28;20061;-66
2023/05/27 02:27:55;;;;;;;6.97;2.88;;;;;;;;;;5010117;28;20060;-65
2023/05/27 02:30:23;;;;;;;6.30;2.53;;;;;;;;;;5009016;28;20046;-66
2023/05/27 02:32:50;;;;;;;9.32;2.92;;;;;;;;;;5010192;28;20506;-66
2023/05/27 02:35:17;;;;;;;8.27;2.47;;;;;;;;;;5009814;28;20475;-66
2023/05/27 02:37:44;;;;;;;6.97;2.85;;;;;;;;;;5010031;28;20050;-66
2023/05/27 02:40:11;;;;;;;9.05;3.63;;;;;;;;;;5009044;28;20050;-65
2023/05/27 02:42:38;;;;;;;8.15;2.80;;;;;;;;;;5009920;28;20455;-65
2023/05/27 02:45:05;;;;;;;11.55;2.85;;;;;;;;;;5013406;28;20045;-65
2023/05/27 02:47:33;;;;;;;6.28;2.50;;;;;;;;;;5013325;28;20050;-66
2023/05/27 02:50:00;;;;;;;5.78;2.67;;;;;;;;;;5013145;28;20057;-65
2023/05/27 02:52:27;;;;;;;7.07;2.40;;;;;;;;;;5012951;28;20049;-66
2023/05/27 02:54:53;;;;;;;6.85;3.20;;;;;;;;;;5013979;28;20050;-66
2023/05/27 02:57:20;;;;;;;6.95;2.70;;;;;;;;;;5012880;28;20519;-65
2023/05/27 02:59:46;;;;;;;9.15;2.83;;;;;;;;;;5012699;28;20042;-65
2023/05/27 03:02:13;;;;;;;9.82;3.00;;;;;;;;;;5013080;28;20046;-66
2023/05/27 03:04:41;;;;;;;6.15;2.33;;;;;;;;;;5013482;28;20408;-65
2023/05/27 03:07:07;;;;;;;10.52;3.22;;;;;;;;;;5012489;28;20058;-65
2023/05/27 03:09:34;;;;;;;7.00;3.13;;;;;;;;;;5043171;22;20548;-67
2023/05/27 03:12:00;;;;;;;7.60;2.75;;;;;;;;;;5032584;28;20061;-67
2023/05/27 03:14:27;;;;;;;8.82;2.88;;;;;;;;;;5033619;28;20045;-67
2023/05/27 03:16:54;;;;;;;5.93;2.35;;;;;;;;;;5032679;28;20602;-67
2023/05/27 03:19:21;;;;;;;8.43;2.50;;;;;;;;;;5033185;28;20060;-67
2023/05/27 03:21:50;;;;;;;7.28;2.92;;;;;;;;;;5032530;28;20056;-67
2023/05/27 03:24:17;;;;;;;9.63;3.58;;;;;;;;;;5032623;28;20045;-67
2023/05/27 03:26:43;;;;;;;6.80;2.80;;;;;;;;;;5032522;28;20068;-67
2023/05/27 03:29:10;;;;;;;7.30;2.80;;;;;;;;;;5032529;28;20045;-67
2023/05/27 03:31:36;;;;;;;10.07;3.15;;;;;;;;;;5032431;28;20050;-68
2023/05/27 03:34:03;;;;;;;8.10;3.20;;;;;;;;;;5032354;28;20049;-67
2023/05/27 03:36:31;;;;;;;9.60;2.60;;;;;;;;;;5032597;28;20045;-67
2023/05/27 03:38:59;;;;;;;9.40;2.80;;;;;;;;;;5032378;28;20059;-67
2023/05/27 03:41:25;;;;;;;7.40;3.30;;;;;;;;;;5032169;28;20057;-67
2023/05/27 03:43:52;;;;;;;6.63;2.70;;;;;;;;;;5032397;28;20053;-67
2023/05/27 03:46:19;;;;;;;8.68;2.50;;;;;;;;;;5032726;28;20045;-68
2023/05/27 03:48:45;;;;;;;11.35;2.92;;;;;;;;;;5032230;28;20056;-67
2023/05/27 03:51:12;;;;;;;7.10;2.53;;;;;;;;;;5031911;28;20305;-67
2023/05/27 03:53:39;;;;;;;6.65;2.72;;;;;;;;;;5031666;28;20091;-67
2023/05/27 03:56:07;;;;;;;8.20;2.78;;;;;;;;;;5032044;28;20505;-67
2023/05/27 03:58:34;;;;;;;7.22;2.85;;;;;;;;;;5032715;28;20056;-66
2023/05/27 04:01:01;;;;;;;5.40;2.90;;;;;;;;;;5031560;28;20128;-67
2023/05/27 04:03:28;;;;;;;7.68;2.83;;;;;;;;;;5032179;28;20049;-67
2023/05/27 04:05:56;;;;;;;8.18;2.83;;;;;;;;;;5031548;28;20056;-67
2023/05/27 04:08:25;;;;;;;8.07;3.17;;;;;;;;;;5032017;28;20104;-67
2023/05/27 04:10:52;;;;;;;8.70;2.60;;;;;;;;;;5031049;28;20052;-67
2023/05/27 04:13:21;;;;;;;8.60;2.40;;;;;;;;;;5032117;28;20053;-67
2023/05/27 04:15:48;;;;;;;4.53;2.70;;;;;;;;;;5031429;28;20263;-67
2023/05/27 04:18:15;;;;;;;13.20;3.40;;;;;;;;;;5031859;28;20092;-67
2023/05/27 04:20:44;;;;;;;10.02;2.88;;;;;;;;;;5031027;28;20088;-67
2023/05/27 04:23:11;;;;;;;9.40;2.70;;;;;;;;;;5031700;28;20053;-67
2023/05/27 04:25:39;;;;;;;4.85;2.53;;;;;;;;;;5031592;28;20045;-67
2023/05/27 04:28:06;;;;;;;8.32;2.45;;;;;;;;;;5032061;28;20046;-67
2023/05/27 04:30:34;;;;;;;8.60;3.22;;;;;;;;;;5030784;28;20068;-67
2023/05/27 04:33:01;;;;;;;7.63;3.10;;;;;;;;;;5031581;28;20487;-67
2023/05/27 04:35:30;;;;;;;5.80;3.15;;;;;;;;;;5031603;28;20049;-67
2023/05/27 04:37:58;;;;;;;9.02;2.80;;;;;;;;;;5031116;28;20099;-67
2023/05/27 04:40:25;;;;;;;7.90;2.80;;;;;;;;;;5031337;28;20136;-67
2023/05/27 04:42:55;;;;;;;5.53;2.58;;;;;;;;;;5031240;28;20077;-67
2023/05/27 04:45:21;;;;;;;8.32;2.78;;;;;;;;;;5031394;28;20060;-67
2023/05/27 04:47:49;;;;;;;9.73;3.45;;;;;;;;;;5030816;28;20514;-67
2023/05/27 04:50:16;;;;;;;9.35;3.00;;;;;;;;;;5030902;28;20053;-67
2023/05/27 04:52:42;;;;;;;7.80;2.70;;;;;;;;;;5031258;28;20049;-69
2023/05/27 04:55:11;;;;;;;7.72;3.22;;;;;;;;;;5031561;28;20080;-66
2023/05/27 04:57:42;;;;;;;9.40;3.10;;;;;;;;;;5030772;28;20053;-68
2023/05/27 05:00:23;;;;;;;6.22;2.40;;;;;;;;;;5030764;28;20049;-67
2023/05/27 05:03:00;;;;;;;6.22;2.58;;;;;;;;;;5030735;28;20104;-67
2023/05/27 05:05:27;;;;;;;7.47;2.55;;;;;;;;;;5030458;28;20053;-67
2023/05/27 05:07:54;;;;;;;7.57;3.13;;;;;;;;;;5030265;28;20053;-67
2023/05/27 05:10:21;;;;;;;9.07;2.67;;;;;;;;;;5030403;28;20072;-67
2023/05/27 05:12:48;;;;;;;6.53;2.70;;;;;;;;;;5030573;28;20522;-67
2023/05/27 05:15:15;;;;;;;12.00;2.72;;;;;;;;;;5030922;28;20682;-67
2023/05/27 05:17:41;;;;;;;7.38;2.60;;;;;;;;;;5030801;28;20073;-67
2023/05/27 05:20:12;;;;;;;8.13;2.53;;;;;;;;;;5030143;28;20084;-67
2023/05/27 05:22:38;;;;;;;8.60;3.78;;;;;;;;;;5030650;28;20050;-67
2023/05/27 05:25:06;;;;;;;7.43;3.03;;;;;;;;;;5030415;28;20499;-67
2023/05/27 05:27:33;;;;;;;9.52;2.58;;;;;;;;;;5030370;28;20065;-67
2023/05/27 05:30:00;;;;;;;9.73;3.03;;;;;;;;;;5029536;28;20083;-67
2023/05/27 05:32:26;;;;;;;5.95;2.30;;;;;;;;;;5030573;28;20041;-67
2023/05/27 05:34:53;;;;;;;10.38;3.03;;;;;;;;;;5030182;28;20053;-68
2023/05/27 05:37:21;;;;;;;6.10;2.80;;;;;;;;;;5030422;28;20499;-68
2023/05/27 05:39:48;;;;;;;7.93;3.10;;;;;;;;;;5029661;28;20045;-67
2023/05/27 05:42:14;;;;;;;7.95;2.67;;;;;;;;;;5030339;28;20055;-67
2023/05/27 05:44:41;;;;;;;12.50;3.10;;;;;;;;;;5030411;28;20057;-68
2023/05/27 05:47:08;;;;;;;10.00;2.90;;;;;;;;;;5030187;28;20064;-67
2023/05/27 05:49:35;;;;;;;9.63;3.03;;;;;;;;;;5029658;28;20055;-67
2023/05/27 05:52:01;;;;;;;6.82;2.60;;;;;;;;;;5030432;28;20049;-68
2023/05/27 05:54:29;;;;;;;15.82;4.03;;;;;;;;;;5030614;28;20046;-67
2023/05/27 05:56:56;;;;;;;8.68;2.90;;;;;;;;;;5029779;28;20370;-67
2023/05/27 05:59:22;;;;;;;9.52;2.97;;;;;;;;;;5030832;28;20046;-67
2023/05/27 06:01:49;;;;;;;9.07;2.90;;;;;;;;;;5029562;28;20085;-68
2023/05/27 06:04:17;;;;;;;12.02;2.92;;;;;;;;;;5030294;28;20045;-68
2023/05/27 06:06:43;;;;;;;12.75;3.55;;;;;;;;;;5029476;28;20146;-67
2023/05/27 06:09:10;;;;;;;10.05;3.17;;;;;;;;;;5029823;28;20515;-67
2023/05/27 06:11:38;;;;;;;9.05;3.25;;;;;;;;;;5029390;28;20080;-67
2023/05/27 06:14:04;;;;;;;8.52;2.60;;;;;;;;;;5029980;28;20041;-67
2023/05/27 06:16:31;;;;;;;7.53;3.72;;;;;;;;;;5029431;28;20053;-68
2023/05/27 06:18:57;;;;;;;9.15;3.58;;;;;;;;;;5034035;28;20136;-68
2023/05/27 06:21:24;;;;;;;8.40;2.97;;;;;;;;;;5033568;28;20503;-67
2023/05/27 06:23:50;;;;;;;10.32;3.20;;;;;;;;;;5033832;28;20506;-68
2023/05/27 06:26:17;;;;;;;7.53;2.65;;;;;;;;;;5033617;28;20053;-68
2023/05/27 06:28:45;;;;;;;7.32;2.72;;;;;;;;;;5033945;28;20045;-68
2023/05/27 06:31:11;;;;;;;6.07;2.42;;;;;;;;;;5033370;28;20483;-68
2023/05/27 06:33:38;;;;;;;9.80;3.30;;;;;;;;;;5033321;28;20049;-67
2023/05/27 06:36:05;;;;;;;12.32;3.88;;;;;;;;;;5033746;28;20418;-68
2023/05/27 06:38:31;;;;;;;8.52;3.13;;;;;;;;;;5032925;28;20049;-68
2023/05/27 06:40:58;;;;;;;9.52;3.08;;;;;;;;;;5033406;28;20059;-68
2023/05/27 06:43:24;;;;;;;6.63;2.28;;;;;;;;;;5033326;28;20407;-68
2023/05/27 06:45:52;;;;;;;10.15;3.08;;;;;;;;;;5033646;28;20046;-67
2023/05/27 06:48:19;;;;;;;9.05;2.95;;;;;;;;;;5033208;28;20050;-68
2023/05/27 06:50:45;;;;;;;9.43;2.97;;;;;;;;;;5032881;28;20050;-67
2023/05/27 06:53:13;;;;;;;9.45;3.15;;;;;;;;;;5032947;28;20499;-68
2023/05/27 06:55:39;;;;;;;10.80;2.75;;;;;;;;;;5033353;28;20051;-67
2023/05/27 06:58:06;;;;;;;5.82;2.50;;;;;;;;;;5033009;28;20080;-67
2023/05/27 07:00:33;;;;;;;10.68;2.65;;;;;;;;;;5033004;28;20052;-67
2023/05/27 07:03:01;;;;;;;10.75;2.90;;;;;;;;;;5033398;28;20045;-67
2023/05/27 07:05:27;;;;;;;10.55;3.17;;;;;;;;;;5033053;28;20049;-67
2023/05/27 07:07:54;;;;;;;8.02;2.45;;;;;;;;;;5033631;28;20515;-67
2023/05/27 07:10:20;;;;;;;7.00;2.60;;;;;;;;;;5032460;28;20061;-67
2023/05/27 07:12:47;;;;;;;8.63;2.88;;;;;;;;;;5033020;28;20506;-67
2023/05/27 07:15:13;;;;;;;6.85;2.80;;;;;;;;;;5032748;28;20053;-67
2023/05/27 07:17:40;;;;;;;10.63;3.00;;;;;;;;;;5032899;28;20045;-67
2023/05/27 07:20:09;;;;;;;7.80;2.47;;;;;;;;;;5032126;28;20042;-67
2023/05/27 07:22:36;;;;;;;8.02;2.95;;;;;;;;;;5033153;28;20051;-67
2023/05/27 07:25:03;;;;;;;9.20;3.13;;;;;;;;;;5032671;28;20403;-67
2023/05/27 07:27:30;;;;;;;7.03;2.88;;;;;;;;;;5032753;28;20046;-68
2023/05/27 07:29:56;;;;;;;8.30;2.88;;;;;;;;;;5031708;28;20049;-67
2023/05/27 07:32:23;;;;;;;8.20;2.70;;;;;;;;;;5032790;28;20319;-68
2023/05/27 07:34:49;;;;;;;8.35;2.70;;;;;;;;;;5032014;28;20045;-68
2023/05/27 07:37:17;;;;;;;11.30;4.85;;;;;;;;;;5032630;28;20454;-68
2023/05/27 07:39:44;;;;;;;10.05;2.70;;;;;;;;;;5032046;28;20049;-67
2023/05/27 07:42:10;;;;;;;8.45;2.53;;;;;;;;;;5032187;28;20050;-67
2023/05/27 07:44:37;;;;;;;10.48;2.70;;;;;;;;;;5032456;28;20046;-67
2023/05/27 07:47:04;;;;;;;8.75;2.83;;;;;;;;;;5031871;28;20059;-67
2023/05/27 07:49:30;;;;;;;10.10;2.80;;;;;;;;;;5032437;28;20057;-67
2023/05/27 07:51:57;;;;;;;9.45;2.72;;;;;;;;;;5032360;28;20307;-67
2023/05/27 07:54:26;;;;;;;7.38;2.67;;;;;;;;;;5032392;28;20053;-67
2023/05/27 07:56:53;;;;;;;10.95;2.72;;;;;;;;;;5031876;28;20064;-67
2023/05/27 07:59:19;;;;;;;10.60;3.50;;;;;;;;;;5032369;28;20424;-68
2023/05/27 08:01:46;;;;;;;8.32;2.67;;;;;;;;;;5031264;28;20056;-68
2023/05/27 08:04:12;;;;;;;7.55;2.67;;;;;;;;;;5032889;28;20408;-67
2023/05/27 08:06:39;;;;;;;6.43;2.72;;;;;;;;;;5031849;28;20056;-67
2023/05/27 08:09:07;;;;;;;10.85;2.88;;;;;;;;;;5031973;28;20045;-68
2023/05/27 08:11:35;;;;;;;6.95;2.42;;;;;;;;;;5031814;28;20537;-67
2023/05/27 08:14:02;;;;;;;6.75;2.70;;;;;;;;;;5032964;28;20114;-67
2023/05/27 08:16:28;;;;;;;6.47;2.50;;;;;;;;;;5032265;28;20052;-67
2023/05/27 08:18:55;;;;;;;8.05;2.30;;;;;;;;;;5032069;28;20637;-67
2023/05/27 08:21:21;;;;;;;7.10;2.25;;;;;;;;;;5031896;28;20517;-68
2023/05/27 08:23:48;;;;;;;7.28;2.75;;;;;;;;;;5031677;28;20054;-67
2023/05/27 08:26:14;;;;;;;9.18;2.90;;;;;;;;;;5031801;28;20487;-67
2023/05/27 08:28:42;;;;;;;10.13;2.92;;;;;;;;;;5031261;28;20049;-68
2023/05/27 08:31:10;;;;;;;8.85;3.13;;;;;;;;;;5031468;28;20060;-68
2023/05/27 08:33:36;;;;;;;8.43;3.08;;;;;;;;;;5031313;28;20050;-68
2023/05/27 08:36:03;;;;;;;8.98;2.30;;;;;;;;;;5038935;28;20052;-67
2023/05/27 08:38:29;;;;;;;10.00;3.28;;;;;;;;;;5031079;28;20404;-68
2023/05/27 08:40:56;;;;;;;8.68;2.42;;;;;;;;;;5030300;28;20068;-68
2023/05/27 08:43:22;;;;;;;7.50;2.70;;;;;;;;;;5031085;28;20049;-68
2023/05/27 08:45:51;;;;;;;7.07;2.55;;;;;;;;;;5031645;28;20056;-68
2023/05/27 08:48:17;;;;;;;9.25;3.22;;;;;;;;;;5030991;28;20049;-68
2023/05/27 08:50:44;;;;;;;8.68;2.50;;;;;;;;;;5031069;28;20049;-68
2023/05/27 08:53:11;;;;;;;10.70;2.80;;;;;;;;;;5031144;28;20049;-67
2023/05/27 08:55:40;;;;;;;8.10;2.67;;;;;;;;;;5030971;28;20380;-67
2023/05/27 08:58:08;;;;;;;5.90;2.17;;;;;;;;;;5030976;28;20579;-67
2023/05/27 09:00:35;;;;;;;7.55;2.30;;;;;;;;;;5030354;28;20156;-67
2023/05/27 09:03:03;;;;;;;6.57;2.63;;;;;;;;;;5031219;28;20045;-71
2023/05/27 09:05:30;;;;;;;6.07;2.22;;;;;;;;;;5030855;28;20049;-68
2023/05/27 09:07:56;;;;;;;9.27;3.08;;;;;;;;;;5046081;22;20339;-67
2023/05/27 09:10:23;;;;;;;41.53;6.60;;;;;;;;;;5050734;28;20045;-68
2023/05/27 09:12:51;;;;;;;10.60;2.67;;;;;;;;;;5051079;28;20052;-68
2023/05/27 09:15:17;;;;;;;10.27;2.63;;;;;;;;;;5050687;28;20045;-70
2023/05/27 09:17:45;;;;;;;6.38;2.67;;;;;;;;;;5051060;28;20082;-70
2023/05/27 09:20:13;;;;;;;10.45;2.60;;;;;;;;;;5050578;28;20517;-69
2023/05/27 09:22:41;;;;;;;8.52;2.70;;;;;;;;;;5050898;28;20048;-70
2023/05/27 09:25:08;;;;;;;8.95;2.78;;;;;;;;;;5050033;28;20429;-67
2023/05/27 09:27:35;;;;;;;8.02;2.55;;;;;;;;;;5050625;28;20132;-67
2023/05/27 09:30:07;;;;;;;9.88;2.85;;;;;;;;;;5050187;28;20099;-67
2023/05/27 09:32:34;;;;;;;;;;;;;;;;;;5050404;28;20052;-67
2023/05/27 09:35:02;;;;;;;8.00;3.05;;;;;;;;;;5050397;28;20271;-67
2023/05/27 09:37:32;;;;;;;11.55;2.63;;;;;;;;;;5049499;28;20045;-67
2023/05/27 09:39:59;;;;;;;9.15;2.55;;;;;;;;;;5050154;28;20482;-67
2023/05/27 09:42:26;;;;;;;8.57;2.33;;;;;;;;;;5049968;28;20049;-67
2023/05/27 09:44:55;;;;;;;8.93;2.60;;;;;;;;;;5050383;28;20414;-67
2023/05/27 09:47:22;;;;;;;9.38;2.80;;;;;;;;;;5049737;28;20099;-67
2023/05/27 09:49:52;;;;;;;7.63;2.30;;;;;;;;;;5049691;28;20475;-67
2023/05/27 09:52:21;;;;;;;5.43;2.53;;;;;;;;;;5049357;28;20056;-67
2023/05/27 09:54:49;;;;;;;12.23;3.10;;;;;;;;;;5049939;28;20055;-67
2023/05/27 09:57:17;;;;;;;6.40;2.42;;;;;;;;;;5049955;28;20494;-67
2023/05/27 09:59:45;;;;;;;12.68;3.30;;;;;;;;;;5049700;28;20045;-67
2023/05/27 10:02:17;;;;;;;7.72;2.85;;;;;;;;;;5049600;28;20051;-67
2023/05/27 10:04:44;;;;;;;8.65;2.45;;;;;;;;;;5049877;28;20481;-67
2023/05/27 10:07:12;;;;;;;8.77;2.42;;;;;;;;;;5049906;28;20049;-67
2023/05/27 10:09:39;;;;;;;7.00;2.35;;;;;;;;;;5049469;28;20094;-67
2023/05/27 10:12:07;;;;;;;9.77;2.70;;;;;;;;;;5049793;28;20095;-67
2023/05/27 10:14:34;;;;;;;7.32;2.50;;;;;;;;;;5049534;28;20061;-67
2023/05/27 10:17:01;;;;;;;11.15;2.80;;;;;;;;;;5049750;28;20051;-67
2023/05/27 10:19:27;;;;;;;7.15;2.75;;;;;;;;;;5049077;28;20053;-67
2023/05/27 10:21:54;;;;;;;9.82;2.72;;;;;;;;;;5049569;28;20049;-68
2023/05/27 10:24:32;;;;;;;9.57;2.70;;;;;;;;;;5049437;28;20049;-67
2023/05/27 10:27:03;;;;;;;7.63;2.58;;;;;;;;;;5050298;28;20051;-67
2023/05/27 10:29:38;;;;;;;7.00;2.53;;;;;;;;;;5049476;28;20049;-67
2023/05/27 10:32:05;;;;;;;6.72;2.85;;;;;;;;;;5049924;28;20049;-67
2023/05/27 10:34:35;;;;;;;7.53;2.47;;;;;;;;;;5049537;28;20553;-67
2023/05/27 10:37:02;;;;;;;9.73;2.92;;;;;;;;;;5049681;28;20202;-67
2023/05/27 10:39:29;;;;;;;6.03;2.38;;;;;;;;;;5049023;28;20426;-66
2023/05/27 10:41:57;;;;;;;7.53;3.13;;;;;;;;;;5049643;28;20358;-67
2023/05/27 10:44:28;;;;;;;9.40;2.67;;;;;;;;;;5048936;28;20045;-67
2023/05/27 10:47:02;;;;;;;9.30;2.70;;;;;;;;;;5049642;28;20049;-67
2023/05/27 10:49:35;;;;;;;7.10;2.58;;;;;;;;;;5049136;28;20045;-67
2023/05/27 10:52:06;;;;;;;7.90;3.00;;;;;;;;;;5049507;28;20045;-67
2023/05/27 10:54:34;;;;;;;9.57;2.20;;;;;;;;;;5049699;28;20041;-67
2023/05/27 10:57:03;;;;;;;6.85;2.67;;;;;;;;;;5049389;28;20076;-67
2023/05/27 10:59:40;;;;;;;7.30;2.50;;;;;;;;;;5049232;28;20487;-67
2023/05/27 11:02:08;;;;;;;8.40;2.78;;;;;;;;;;5049259;28;20049;-67
2023/05/27 11:04:35;;;;;;;7.60;2.60;;;;;;;;;;5051126;28;20075;-67
2023/05/27 11:07:02;;;;;;;6.85;2.10;;;;;;;;;;5052622;28;20052;-67
2023/05/27 11:09:28;;;;;;;9.77;2.88;;;;;;;;;;5052559;28;20045;-66
2023/05/27 11:11:56;;;;;;;7.30;2.40;;;;;;;;;;5052748;28;20053;-67
2023/05/27 11:14:24;;;;;;;8.10;2.97;;;;;;;;;;5053299;28;20075;-67
2023/05/27 11:16:51;;;;;;;7.57;2.80;;;;;;;;;;5052692;28;20045;-67
2023/05/27 11:19:21;;;;;;;7.75;2.90;;;;;;;;;;5052904;28;20053;-67
2023/05/27 11:21:48;;;;;;;10.88;2.92;;;;;;;;;;5051856;28;20223;-67
2023/05/27 11:24:16;;;;;;;6.25;2.83;;;;;;;;;;5053354;28;20120;-67
2023/05/27 11:26:43;;;;;;;7.57;2.85;;;;;;;;;;5052629;28;20490;-68
2023/05/27 11:29:11;;;;;;;8.88;2.50;;;;;;;;;;5052994;28;20045;-67
2023/05/27 11:31:40;;;;;;;9.07;2.42;;;;;;;;;;5052084;28;20132;-67
2023/05/27 11:34:13;;;;;;;6.38;2.60;;;;;;;;;;5053065;28;20051;-69
2023/05/27 11:36:41;;;;;;;7.03;2.33;;;;;;;;;;5052843;28;20461;-67
2023/05/27 11:39:13;;;;;;;6.57;2.95;;;;;;;;;;5052900;28;20482;-67
2023/05/27 11:41:50;;;;;;;8.13;2.57;;;;;;;;;;5052508;28;20053;-67
2023/05/27 11:44:17;;;;;;;8.30;2.80;;;;;;;;;;5052551;28;20293;-67
2023/05/27 11:46:45;;;;;;;9.30;2.47;;;;;;;;;;5052289;28;20041;-67
2023/05/27 11:49:13;;;;;;;8.60;2.88;;;;;;;;;;5052102;28;20049;-67
2023/05/27 11:51:41;;;;;;;8.07;2.53;;;;;;;;;;5052148;28;20131;-66
2023/05/27 11:54:18;;;;;;;6.95;2.70;;;;;;;;;;5052133;28;20045;-66
2023/05/27 11:56:45;;;;;;;7.50;2.75;;;;;;;;;;5052828;28;20430;-67
2023/05/27 11:59:11;;;;;;;7.15;2.65;;;;;;;;;;5051687;28;20120;-67
2023/05/27 12:01:38;;;;;;;9.43;2.75;;;;;;;;;;5051852;28;20479;-67
2023/05/27 12:04:05;;;;;;;7.43;2.55;;;;;;;;;;5051840;28;20049;-67
2023/05/27 12:06:32;;;;;;;7.38;2.75;;;;;;;;;;5052143;28;20094;-67
2023/05/27 12:09:00;;;;;;;6.38;3.42;;;;;;;;;;5051665;28;20487;-67
2023/05/27 12:11:26;;;;;;;11.88;3.00;;;;;;;;;;5051544;28;20045;-67
2023/05/27 12:13:54;;;;;;;6.43;2.80;;;;;;;;;;5051268;28;20052;-67
2023/05/27 12:16:20;;;;;;;7.07;2.80;;;;;;;;;;5051984;28;20394;-67
2023/05/27 12:18:47;;;;;;;6.95;2.70;;;;;;;;;;5051788;28;20052;-67
2023/05/27 12:21:14;;;;;;;5.43;2.45;;;;;;;;;;5051650;28;20495;-67
2023/05/27 12:23:40;;;;;;;7.70;2.97;;;;;;;;;;5051844;28;20136;-67
2023/05/27 12:26:09;;;;;;;6.10;2.38;;;;;;;;;;5051161;28;20052;-67
2023/05/27 12:28:36;;;;;;;7.20;2.95;;;;;;;;;;5051588;28;20075;-67
2023/05/27 12:31:03;;;;;;;5.80;3.03;;;;;;;;;;5051074;28;20052;-67
2023/05/27 12:33:30;;;;;;;6.63;3.15;;;;;;;;;;5051538;28;20049;-67
2023/05/27 12:35:57;;;;;;;6.60;3.22;;;;;;;;;;5051177;28;20391;-67
2023/05/27 12:38:23;;;;;;;8.95;3.08;;;;;;;;;;5051469;28;20055;-67
2023/05/27 12:40:50;;;;;;;5.40;2.95;;;;;;;;;;5050811;28;20048;-67
2023/05/27 12:43:18;;;;;;;8.18;3.15;;;;;;;;;;5051559;28;20066;-67
2023/05/27 12:45:45;;;;;;;7.65;2.85;;;;;;;;;;5051044;28;20501;-67
2023/05/27 12:48:12;;;;;;;7.00;3.00;;;;;;;;;;5051455;28;20495;-67
2023/05/27 12:50:39;;;;;;;6.93;3.25;;;;;;;;;;5050282;28;20049;-67
2023/05/27 12:53:05;;;;;;;10.23;3.47;;;;;;;;;;5051210;28;20115;-67
2023/05/27 12:55:32;;;;;;;10.18;3.17;;;;;;;;;;5050707;28;20487;-67
2023/05/27 12:57:59;;;;;;;6.00;3.10;;;;;;;;;;5051461;28;20414;-67
2023/05/27 13:00:27;;;;;;;9.55;3.30;;;;;;;;;;5050723;28;20049;-67
2023/05/27 13:02:53;;;;;;;4.18;2.95;;;;;;;;;;5050628;28;20343;-68
2023/05/27 13:05:20;;;;;;;5.70;4.80;;;;;;;;;;5051039;28;20068;-68
2023/05/27 13:07:55;;;;;;;7.88;3.30;;;;;;;;;;5050355;28;20045;-68
2023/05/27 13:10:22;;;;;;;5.55;3.05;;;;;;;;;;5050599;28;20098;-68
2023/05/27 13:12:49;;;;;;;7.82;2.72;;;;;;;;;;5050224;28;20041;-66
2023/05/27 13:15:16;;;;;;;5.00;2.90;;;;;;;;;;5050865;28;20041;-66
2023/05/27 13:17:45;;;;;;;7.75;3.13;;;;;;;;;;5050135;28;20095;-66
2023/05/27 13:20:12;;;;;;;5.35;2.92;;;;;;;;;;5050297;28;20501;-68
2023/05/27 13:22:38;;;;;;;5.75;3.00;;;;;;;;;;5049898;28;20053;-66
2023/05/27 13:25:06;;;;;;;7.72;2.95;;;;;;;;;;5050394;28;20060;-68
2023/05/27 13:27:33;;;;;;;7.88;2.97;;;;;;;;;;5049615;28;20063;-66
2023/05/27 13:29:59;;;;;;;4.95;2.47;;;;;;;;;;5050084;28;20053;-66
2023/05/27 13:32:26;;;;;;;7.93;2.95;;;;;;;;;;5049841;28;20502;-66
2023/05/27 13:34:55;;;;;;;4.93;2.65;;;;;;;;;;5050450;28;20505;-66
2023/05/27 13:37:21;;;;;;;5.07;2.95;;;;;;;;;;5050399;28;20052;-66
2023/05/27 13:39:48;;;;;;;5.20;2.75;;;;;;;;;;5049316;28;20055;-66
2023/05/27 13:42:14;;;;;;;4.90;2.90;;;;;;;;;;5050367;28;20045;-66
2023/05/27 13:44:41;;;;;;;5.28;3.20;;;;;;;;;;5049763;28;20056;-66
2023/05/27 13:47:07;;;;;;;8.70;3.10;;;;;;;;;;5050221;28;20151;-67
2023/05/27 13:49:35;;;;;;;5.38;2.90;;;;;;;;;;5049509;28;20498;-66
2023/05/27 13:52:03;;;;;;;5.85;3.00;;;;;;;;;;5050528;28;20048;-66
2023/05/27 13:54:30;;;;;;;3.63;2.88;;;;;;;;;;5050173;28;20049;-66
2023/05/27 13:56:57;;;;;;;5.80;3.05;;;;;;;;;;5050421;28;20414;-67
2023/05/27 13:59:23;;;;;;;5.15;2.92;;;;;;;;;;5049695;28;20045;-67
2023/05/27 14:01:51;;;;;;;4.97;3.10;;;;;;;;;;5050042;28;20052;-67
2023/05/27 14:04:17;;;;;;;5.32;2.75;;;;;;;;;;5049417;28;20056;-67
2023/05/27 14:06:44;;;;;;;5.70;2.95;;;;;;;;;;5049751;28;20052;-67
2023/05/27 14:09:12;;;;;;;5.18;2.97;;;;;;;;;;5049428;28;20064;-67
2023/05/27 14:11:39;;;;;;;7.68;3.10;;;;;;;;;;5049574;28;20133;-67
2023/05/27 14:14:06;;;;;;;5.05;2.88;;;;;;;;;;5049972;28;20064;-66
2023/05/27 14:16:32;;;;;;;7.32;3.00;;;;;;;;;;5049470;28;20067;-67
2023/05/27 14:18:59;;;;;;;6.40;3.38;;;;;;;;;;5049827;28;20407;-67
2023/05/27 14:21:25;;;;;;;6.70;3.63;;;;;;;;;;5048763;28;20049;-67
2023/05/27 14:23:52;;;;;;;6.68;3.03;;;;;;;;;;5049607;28;20045;-66
2023/05/27 14:26:20;;;;;;;5.45;3.13;;;;;;;;;;5049283;28;20055;-67
2023/05/27 14:28:46;;;;;;;6.20;3.00;;;;;;;;;;5049645;28;20089;-66
2023/05/27 14:31:13;;;;;;;5.35;2.80;;;;;;;;;;5048719;28;20045;-68
2023/05/27 14:33:39;;;;;;;5.10;2.95;;;;;;;;;;5049530;28;20411;-68
2023/05/27 14:36:07;;;;;;;5.97;2.92;;;;;;;;;;5049553;28;20053;-68
2023/05/27 14:38:33;;;;;;;5.20;2.92;;;;;;;;;;5049731;28;20045;-67
2023/05/27 14:41:00;;;;;;;5.40;3.05;;;;;;;;;;5052946;28;20470;-68
2023/05/27 14:43:28;;;;;;;4.85;3.10;;;;;;;;;;5053480;28;20083;-69